Malibu, CA (90263)

8:12 PM PDT on August 28, 2015 (GMT -0700)
Pt. Dume - Dume Drive | | Change Station
CLOSE
Current Station
Personal Weather Station
Location: Malibu, CA
Elevation: 213 ft
Nearby Weather Stations

Elev 213 ft 34.02 °N, 118.81 °W | Updated 11 minutes ago

Clear
Clear
74.2 °F
Feels Like 75 °F
N
4.0
Wind Variable Wind from WSW
Gusts 6.0 mph

Today
High -- | Low -- °F
--% Chance of Precip.
Yesterday
High -- | Low -- °F
Precip. -- in
6:25 AM 7:26 PM
Waxing Gibbous, 99% visible
Pressure 29.82 in
Visibility 10.0 miles
Clouds Few 30000 ft
Heat Index 75 °F
Dew Point 66 °F
Humidity 75%
Rainfall 0.00 in
Snow Depth Not available.
UV 0 out of 12
Pollen 6.50 out of 12
Air Quality Not available.
Flu Activity Not available.
METAR KNTD 290256Z 28007KT 10SM FEW300 24/18 A2982 RMK AO2 SLP098 T02390183 55005 VISNO N $
Pressure 29.82 in
Visibility 10.0 miles
Clouds Few 30000 ft
Heat Index 75 °F
Dew Point 66 °F
Humidity 75%
Rainfall 0.00 in
Snow Depth Not available.
UV 0 out of 12
Pollen 6.50 out of 12
Air Quality Not available.
Flu Activity Not available.
METAR KNTD 290256Z 28007KT 10SM FEW300 24/18 A2982 RMK AO2 SLP098 T02390183 55005 VISNO N $

10-Day Weather Forecast

×

Almanac

Astronomy

Aug. 28, 2015 Rise Set
Actual Time
Civil Twilight
Nautical Twilight
Astronomical Twilight
Moon
Length of Visible Light
Length of Day
Tomorrow will be .
, % of the Moon is Illuminated

Today's Extremes

State Highs State Lows

Community

WunderPhotos

Upload Photos

1,850,606 photos uploaded!

WunderBlogs® & News

Nearby

Air Quality

  Air Quality AQ Index Pollutant
Not available.

Snow Depth

Station Depth Elevation

Earthquake Activity

City Distance Mag. Time & Date
Minimum magnitude displayed is 2.5.

Coastal Water Temperatures

Place Temperature

Stations

Nearby Weather Stations

Station Location Temp. Windchill Dew Point Humidity Wind Precip. Elev Updated Type